Time;durP1;ratioP1;P1;durP2;ratioP2;P2;SDS_P1;SDS_P2;PMS_P1;PMS_P2;Temp;Humidity;BMP_temperature;BMP_pressure;BME280_temperature;BME280_humidity;BME280_pressure;Samples;Min_cycle;Max_cycle;Signal;HPM_P1;HPM_P2
2022/04/12 00:00:40;;;;;;;7.30;3.97;;;6.90;99.90;;;;;;5092531;28;20468;-76
2022/04/12 00:03:07;;;;;;;7.50;4.10;;;6.80;99.90;;;;;;5093148;28;20056;-76
2022/04/12 00:05:38;;;;;;;8.15;4.00;;;6.70;99.90;;;;;;5093204;28;20063;-76
2022/04/12 00:08:05;;;;;;;8.38;3.83;;;6.40;99.90;;;;;;5094334;28;20052;-74
2022/04/12 00:10:32;;;;;;;6.80;4.10;;;6.60;99.90;;;;;;5092444;28;20506;-76
2022/04/12 00:12:59;;;;;;;7.47;4.00;;;6.40;99.90;;;;;;5092784;28;20044;-79
2022/04/12 00:15:25;;;;;;;7.50;3.95;;;6.50;99.90;;;;;;5092733;28;20055;-75
2022/04/12 00:20:36;;;;;;;6.85;3.88;;;6.50;99.90;;;;;;5092634;28;20059;-75
2022/04/12 00:23:02;;;;;;;;;;;6.20;99.90;;;;;;5092961;28;20052;-76
2022/04/12 00:25:28;;;;;;;8.60;4.32;;;6.50;99.90;;;;;;5126639;27;20383;-76
2022/04/12 00:27:55;;;;;;;;;;;6.40;99.90;;;;;;5092736;28;20498;-74
2022/04/12 00:30:22;;;;;;;8.48;4.35;;;5.70;99.90;;;;;;5092317;28;19924;-75
2022/04/12 00:32:50;;;;;;;9.05;4.80;;;;;;;;;;5092511;28;20052;-77
2022/04/12 00:35:17;;;;;;;7.13;4.25;;;6.30;99.90;;;;;;5092446;28;20050;-78
2022/04/12 00:37:43;;;;;;;8.50;4.80;;;6.20;99.90;;;;;;5092730;28;20048;-75
2022/04/12 00:40:09;;;;;;;10.35;4.15;;;6.60;99.90;;;;;;5093996;28;20456;-75
2022/04/12 00:42:35;;;;;;;7.65;4.45;;;6.60;99.90;;;;;;5092728;28;20044;-77
2022/04/12 00:45:01;;;;;;;8.20;4.50;;;6.40;99.90;;;;;;5092152;28;20063;-75
2022/04/12 00:47:27;;;;;;;8.68;4.32;;;6.50;99.90;;;;;;5093470;28;20090;-73
2022/04/12 00:49:52;;;;;;;11.77;4.32;;;6.30;99.90;;;;;;5075971;28;20071;-74
2022/04/12 00:52:18;;;;;;;7.35;4.43;;;6.40;99.90;;;;;;5078698;28;20044;-77
2022/04/12 00:54:45;;;;;;;7.90;4.65;;;6.70;99.90;;;;;;5096199;28;20044;-78
2022/04/12 00:57:12;;;;;;;8.70;4.50;;;6.40;99.90;;;;;;5097363;28;20173;-74
2022/04/12 00:59:38;;;;;;;7.95;4.50;;;6.30;99.90;;;;;;5097267;28;20079;-73
2022/04/12 01:02:05;;;;;;;7.28;4.40;;;6.50;99.90;;;;;;5097740;28;20048;-74
2022/04/12 01:04:32;;;;;;;11.25;5.28;;;6.20;99.90;;;;;;5097220;28;20126;-75
2022/04/12 01:06:58;;;;;;;7.95;4.28;;;6.40;99.90;;;;;;5097934;28;20044;-76
2022/04/12 01:09:28;;;;;;;9.95;4.80;;;6.30;99.90;;;;;;5096014;28;20032;-77
2022/04/12 01:11:55;;;;;;;7.72;4.80;;;6.30;99.90;;;;;;5097061;28;20044;-75
2022/04/12 01:14:22;;;;;;;8.35;4.82;;;6.20;99.90;;;;;;5079334;28;20067;-76
2022/04/12 01:16:49;;;;;;;6.68;4.60;;;;;;;;;;5095712;28;20059;-76
2022/04/12 01:19:16;;;;;;;7.85;5.10;;;;;;;;;;5096113;28;20387;-74
2022/04/12 01:21:54;;;;;;;9.52;5.05;;;6.00;99.90;;;;;;5078849;28;20040;-76
2022/04/12 01:24:20;;;;;;;8.88;4.65;;;6.20;99.90;;;;;;5096224;28;20083;-76
2022/04/12 01:26:46;;;;;;;6.75;4.85;;;6.20;99.90;;;;;;5096466;28;20499;-75
2022/04/12 01:29:12;;;;;;;6.97;4.85;;;6.00;99.90;;;;;;5096217;28;20060;-76
2022/04/12 01:31:38;;;;;;;8.90;5.10;;;6.00;99.90;;;;;;5096069;28;20052;-73
2022/04/12 01:34:04;;;;;;;9.95;5.25;;;;;;;;;;5062085;28;20074;-76
2022/04/12 01:36:29;;;;;;;10.13;5.28;;;6.10;99.90;;;;;;5112660;27;20149;-75
2022/04/12 01:38:55;;;;;;;8.65;5.03;;;6.30;99.90;;;;;;5095640;28;20080;-77
2022/04/12 01:41:21;;;;;;;6.32;4.82;;;6.10;99.90;;;;;;5096304;28;20131;-75
2022/04/12 01:43:46;;;;;;;8.45;5.40;;;6.10;99.90;;;;;;5095332;28;20052;-76
2022/04/12 01:46:12;;;;;;;11.40;5.75;;;6.00;99.90;;;;;;5095505;28;20061;-75
2022/04/12 01:48:38;;;;;;;10.68;5.15;;;6.00;99.90;;;;;;5078466;28;20479;-77
2022/04/12 01:51:03;;;;;;;11.32;5.32;;;6.00;99.90;;;;;;5078318;28;20091;-76
2022/04/12 01:53:29;;;;;;;8.88;5.45;;;6.30;99.90;;;;;;5061963;28;20052;-74
2022/04/12 01:55:55;;;;;;;9.30;5.35;;;6.20;99.90;;;;;;5095101;28;20040;-76
2022/04/12 01:58:20;;;;;;;8.55;5.95;;;6.10;99.90;;;;;;5078218;28;20052;-77
2022/04/12 02:00:46;;;;;;;9.05;5.47;;;5.80;99.90;;;;;;5078183;28;20067;-76
2022/04/12 02:03:12;;;;;;;10.68;6.05;;;6.10;99.90;;;;;;5095671;28;20051;-78
2022/04/12 02:05:39;;;;;;;8.13;5.68;;;5.90;99.90;;;;;;5095283;28;20051;-74
2022/04/12 02:08:06;;;;;;;7.97;5.45;;;5.80;99.90;;;;;;5094681;28;20044;-76
2022/04/12 02:10:32;;;;;;;9.07;5.95;;;;;;;;;;5095874;28;20048;-77
2022/04/12 02:12:58;;;;;;;9.35;5.97;;;5.60;99.90;;;;;;5094949;28;20040;-75
2022/04/12 02:15:23;;;;;;;11.00;5.88;;;5.50;99.90;;;;;;5096427;28;20452;-77
2022/04/12 02:17:49;;;;;;;10.18;5.93;;;;;;;;;;5094839;28;20086;-78
2022/04/12 02:20:15;;;;;;;7.32;5.25;;;5.70;99.90;;;;;;5078035;28;20044;-75
2022/04/12 02:22:41;;;;;;;9.25;6.28;;;5.70;99.90;;;;;;5077798;28;20135;-77
2022/04/12 02:25:07;;;;;;;10.73;6.30;;;5.80;99.90;;;;;;5129042;27;20078;-76
2022/04/12 02:27:33;;;;;;;10.80;6.32;;;5.80;99.90;;;;;;5077919;28;20462;-78
2022/04/12 02:29:59;;;;;;;11.52;6.50;;;;;;;;;;5078061;28;20131;-78
2022/04/12 02:32:24;;;;;;;11.48;7.03;;;5.60;99.90;;;;;;5061158;28;20454;-77
2022/04/12 02:34:50;;;;;;;11.10;6.57;;;5.80;99.90;;;;;;5094304;28;20040;-77
2022/04/12 02:37:16;;;;;;;12.50;6.78;;;5.50;99.90;;;;;;5094379;28;20552;-77
2022/04/12 02:39:41;;;;;;;12.65;6.47;;;5.50;99.90;;;;;;5077570;28;20519;-74
2022/04/12 02:42:07;;;;;;;11.98;6.88;;;5.50;99.90;;;;;;5094380;28;20527;-76
2022/04/12 02:44:33;;;;;;;9.85;6.78;;;5.30;99.90;;;;;;5095043;28;20412;-76
2022/04/12 02:46:59;;;;;;;10.55;6.93;;;;;;;;;;5094520;28;20063;-77
2022/04/12 02:49:25;;;;;;;9.07;6.50;;;5.40;99.90;;;;;;5094622;28;20464;-77
2022/04/12 02:51:51;;;;;;;14.80;6.93;;;5.50;99.90;;;;;;5094104;28;20090;-77
2022/04/12 02:54:18;;;;;;;9.95;7.13;;;5.50;99.90;;;;;;5095330;28;20056;-77
2022/04/12 02:56:43;;;;;;;;;;;5.30;99.90;;;;;;5094463;28;20126;-77
2022/04/12 02:59:09;;;;;;;11.93;6.95;;;5.80;99.90;;;;;;5094966;28;20023;-77
2022/04/12 03:01:35;;;;;;;15.27;7.35;;;5.50;99.90;;;;;;5093732;28;20040;-78
2022/04/12 03:04:01;;;;;;;14.05;7.18;;;;;;;;;;5094180;28;20055;-76
2022/04/12 03:06:27;;;;;;;11.18;7.68;;;5.20;99.90;;;;;;5093662;28;20044;-77
2022/04/12 03:08:52;;;;;;;15.95;8.02;;;5.20;99.90;;;;;;5076878;28;20123;-78
2022/04/12 03:11:18;;;;;;;12.77;7.22;;;5.40;99.90;;;;;;5077697;28;20048;-77
2022/04/12 03:13:44;;;;;;;10.70;7.38;;;5.40;99.90;;;;;;5127116;27;20059;-75
2022/04/12 03:16:09;;;;;;;14.18;8.15;;;5.30;99.90;;;;;;5094519;28;20040;-77
2022/04/12 03:18:35;;;;;;;13.98;7.10;;;5.70;99.90;;;;;;5076998;28;20127;-78
2022/04/12 03:21:01;;;;;;;13.25;8.00;;;5.20;99.90;;;;;;5127892;27;20052;-76
2022/04/12 03:23:26;;;;;;;12.50;7.97;;;5.30;99.90;;;;;;5076110;28;20048;-77
2022/04/12 03:25:52;;;;;;;13.77;7.90;;;5.20;99.90;;;;;;5077011;28;20044;-76
2022/04/12 03:28:18;;;;;;;10.75;7.53;;;5.30;99.90;;;;;;5076608;28;20036;-76
2022/04/12 03:30:43;;;;;;;13.15;7.75;;;5.10;99.90;;;;;;5095089;28;20105;-75
2022/04/12 03:33:09;;;;;;;14.30;8.30;;;;;;;;;;5094788;28;20059;-73
2022/04/12 03:35:35;;;;;;;12.40;7.60;;;5.20;99.90;;;;;;5093321;28;20050;-77
2022/04/12 03:38:01;;;;;;;13.45;7.82;;;5.20;99.90;;;;;;5076290;28;20127;-75
2022/04/12 03:40:31;;;;;;;14.70;8.52;;;5.20;99.90;;;;;;5094544;28;20040;-76
2022/04/12 03:43:02;;;;;;;12.88;8.38;;;5.30;99.90;;;;;;5093231;28;20051;-77
2022/04/12 03:45:28;;;;;;;15.80;8.50;;;;;;;;;;5093212;28;20433;-77
2022/04/12 03:47:54;;;;;;;;;;;5.20;99.90;;;;;;5076836;28;20087;-76
2022/04/12 03:50:20;;;;;;;14.07;8.73;;;5.20;99.90;;;;;;5092879;28;19979;-73
2022/04/12 03:52:46;;;;;;;13.88;8.38;;;5.40;99.90;;;;;;5092782;28;20040;-76
2022/04/12 03:55:11;;;;;;;13.73;8.52;;;5.60;99.90;;;;;;5092958;28;20181;-76
2022/04/12 03:57:37;;;;;;;11.77;8.25;;;5.60;99.90;;;;;;5076422;28;20613;-77
2022/04/12 04:00:08;;;;;;;14.48;8.82;;;;;;;;;;5094409;28;20102;-76
2022/04/12 04:02:37;;;;;;;14.50;8.75;;;;;;;;;;5093315;28;20396;-76
2022/04/12 04:05:04;;;;;;;12.93;8.52;;;5.40;99.90;;;;;;5092807;28;20514;-76
2022/04/12 04:07:30;;;;;;;14.05;8.77;;;5.20;99.90;;;;;;5109760;28;20087;-75
2022/04/12 04:09:56;;;;;;;13.65;9.20;;;5.20;99.90;;;;;;5093720;28;20117;-74
2022/04/12 04:12:22;;;;;;;14.30;9.75;;;5.20;99.90;;;;;;5092733;28;20044;-76
2022/04/12 04:14:49;;;;;;;15.60;9.13;;;5.30;99.90;;;;;;5092741;28;20426;-73
2022/04/12 04:17:14;;;;;;;13.27;9.32;;;5.10;99.90;;;;;;5092717;28;20164;-75
2022/04/12 04:19:40;;;;;;;13.93;9.35;;;5.20;99.90;;;;;;5092547;28;20052;-75
2022/04/12 04:22:06;;;;;;;14.60;9.23;;;5.50;99.90;;;;;;5092446;28;20101;-77
2022/04/12 04:24:32;;;;;;;17.60;10.15;;;5.30;99.90;;;;;;5092453;28;20135;-77
2022/04/12 04:26:58;;;;;;;14.38;8.98;;;5.40;99.90;;;;;;5093616;28;20051;-76
2022/04/12 04:29:27;;;;;;;17.92;9.27;;;;;;;;;;5091945;28;20060;-74
2022/04/12 04:31:53;;;;;;;15.43;9.38;;;5.20;99.90;;;;;;5093237;28;20055;-75
2022/04/12 04:34:18;;;;;;;15.50;8.68;;;5.10;99.90;;;;;;5092336;28;20086;-74
2022/04/12 04:36:44;;;;;;;14.70;9.50;;;;;;;;;;5093467;28;20087;-76
2022/04/12 04:39:10;;;;;;;17.27;9.38;;;5.40;99.90;;;;;;5092212;28;20052;-77
2022/04/12 04:41:36;;;;;;;18.48;9.68;;;5.40;99.90;;;;;;5092187;28;20047;-75
2022/04/12 04:44:01;;;;;;;15.82;9.15;;;5.40;99.90;;;;;;5093417;28;20087;-75
2022/04/12 04:46:28;;;;;;;15.02;9.43;;;5.00;99.90;;;;;;5092392;28;20048;-77
2022/04/12 04:48:54;;;;;;;14.70;9.32;;;;;;;;;;5093390;28;20048;-74
2022/04/12 04:51:19;;;;;;;15.70;9.85;;;5.40;99.90;;;;;;5075195;28;20039;-77
2022/04/12 04:53:50;;;;;;;17.70;9.65;;;5.20;99.90;;;;;;5059655;28;20048;-75
2022/04/12 04:56:15;;;;;;;13.88;9.65;;;5.60;99.90;;;;;;5092944;28;20044;-76
2022/04/12 04:58:41;;;;;;;15.82;9.73;;;5.10;99.90;;;;;;5092254;28;20567;-77
2022/04/12 05:01:07;;;;;;;14.93;9.48;;;5.30;99.90;;;;;;5092347;28;20365;-74
2022/04/12 05:03:33;;;;;;;16.17;10.02;;;5.30;99.90;;;;;;5076163;28;20048;-76
2022/04/12 05:05:59;;;;;;;15.63;10.43;;;;;;;;;;5058746;28;20130;-77
2022/04/12 05:08:24;;;;;;;16.30;9.23;;;5.70;99.90;;;;;;5092210;28;20044;-73
2022/04/12 05:10:50;;;;;;;17.27;11.07;;;5.30;99.90;;;;;;5075114;28;20168;-76
2022/04/12 05:13:17;;;;;;;15.45;9.25;;;;;;;;;;5093143;28;20051;-77
2022/04/12 05:15:42;;;;;;;19.40;10.57;;;5.50;99.90;;;;;;5075673;28;20095;-74
2022/04/12 05:18:09;;;;;;;13.55;9.55;;;5.50;99.90;;;;;;5042776;28;20523;-76
2022/04/12 05:20:34;;;;;;;;;;;5.20;99.90;;;;;;5075601;28;20032;-73
2022/04/12 05:23:00;;;;;;;16.90;9.90;;;5.50;99.90;;;;;;5075274;28;20029;-76
2022/04/12 05:25:26;;;;;;;14.65;9.50;;;5.60;99.90;;;;;;5093074;28;20040;-76
2022/04/12 05:27:52;;;;;;;18.08;10.10;;;5.60;99.90;;;;;;5091711;28;20061;-77
2022/04/12 05:30:18;;;;;;;25.83;10.80;;;5.60;99.90;;;;;;5093383;28;20084;-75
2022/04/12 05:32:45;;;;;;;14.68;10.10;;;5.70;99.90;;;;;;5075371;28;20051;-75
2022/04/12 05:35:11;;;;;;;16.33;9.88;;;5.90;99.90;;;;;;5092180;28;20063;-75
2022/04/12 05:37:56;;;;;;;15.52;10.02;;;6.00;99.90;;;;;;5093518;28;20088;-76
2022/04/12 05:40:22;;;;;;;15.93;10.20;;;;;;;;;;5096156;28;20052;-77
2022/04/12 05:42:49;;;;;;;14.93;9.95;;;5.90;99.90;;;;;;5095513;28;20392;-76
2022/04/12 05:45:16;;;;;;;15.05;9.85;;;6.20;99.90;;;;;;5095750;28;20052;-76
2022/04/12 05:47:44;;;;;;;15.07;9.82;;;6.20;99.90;;;;;;5095342;28;20074;-76
2022/04/12 05:50:11;;;;;;;15.95;9.48;;;6.00;99.90;;;;;;5078526;28;20044;-75
2022/04/12 05:52:38;;;;;;;13.95;9.27;;;6.20;99.90;;;;;;5078404;28;20040;-78
2022/04/12 05:55:06;;;;;;;15.90;9.80;;;6.60;99.90;;;;;;5095326;28;20426;-77
2022/04/12 05:57:32;;;;;;;16.42;10.55;;;6.60;99.90;;;;;;5096158;28;20112;-76
2022/04/12 05:59:57;;;;;;;16.30;9.95;;;6.40;99.90;;;;;;5096007;28;20411;-76
2022/04/12 06:02:23;;;;;;;14.27;9.50;;;;;;;;;;5095135;28;20441;-76
2022/04/12 06:04:49;;;;;;;14.60;10.00;;;6.30;99.90;;;;;;5111901;27;20044;-76
2022/04/12 06:07:15;;;;;;;14.93;9.85;;;6.40;99.90;;;;;;5094740;28;20174;-76
2022/04/12 06:09:40;;;;;;;15.25;10.88;;;6.20;99.90;;;;;;5094709;28;20080;-76
2022/04/12 06:12:06;;;;;;;15.65;10.15;;;6.70;99.90;;;;;;5095663;28;20055;-76
2022/04/12 06:14:32;;;;;;;15.77;10.15;;;6.50;99.90;;;;;;5128761;27;20044;-77
2022/04/12 06:16:57;;;;;;;15.50;9.40;;;6.70;99.90;;;;;;5094349;28;20082;-75
2022/04/12 06:19:23;;;;;;;15.43;10.20;;;7.00;99.90;;;;;;5095834;28;20071;-76
2022/04/12 06:21:49;;;;;;;17.63;10.25;;;6.80;99.90;;;;;;5094722;28;20048;-79
2022/04/12 06:24:14;;;;;;;14.45;10.00;;;6.80;99.90;;;;;;5077452;28;20044;-75
2022/04/12 06:26:40;;;;;;;14.40;9.80;;;6.60;99.90;;;;;;5094423;28;20048;-73
2022/04/12 06:29:05;;;;;;;13.27;9.48;;;6.80;99.90;;;;;;5128948;27;20045;-73
2022/04/12 06:31:31;;;;;;;16.48;10.93;;;7.00;99.90;;;;;;5094666;28;20048;-77
2022/04/12 06:33:57;;;;;;;14.43;10.38;;;6.90;99.90;;;;;;5078217;28;20396;-77
2022/04/12 06:36:23;;;;;;;18.35;10.20;;;6.80;99.90;;;;;;5078248;28;20544;-75
2022/04/12 06:38:48;;;;;;;15.95;9.63;;;7.20;99.90;;;;;;5094374;28;20048;-74
2022/04/12 06:41:14;;;;;;;14.50;9.95;;;7.10;99.90;;;;;;5077265;28;20135;-76
2022/04/12 06:43:40;;;;;;;16.98;10.40;;;6.90;99.90;;;;;;5094336;28;20044;-75
2022/04/12 06:46:05;;;;;;;16.00;10.90;;;6.90;99.90;;;;;;5094064;28;20051;-75
2022/04/12 06:48:31;;;;;;;18.23;10.95;;;7.10;99.90;;;;;;5095048;28;20051;-76
2022/04/12 06:50:57;;;;;;;17.95;10.52;;;7.00;99.90;;;;;;5076861;28;20115;-76
2022/04/12 06:53:23;;;;;;;21.42;10.82;;;7.20;99.90;;;;;;5093954;28;20066;-78
2022/04/12 06:55:49;;;;;;;16.50;10.27;;;7.00;99.90;;;;;;5093851;28;20055;-78
2022/04/12 06:58:15;;;;;;;16.88;10.20;;;7.50;99.90;;;;;;5060578;28;20132;-77
2022/04/12 07:00:41;;;;;;;19.70;11.00;;;7.30;99.90;;;;;;5095207;28;20392;-75
2022/04/12 07:03:07;;;;;;;19.42;10.10;;;7.60;99.90;;;;;;5077050;28;20473;-76
2022/04/12 07:05:33;;;;;;;14.68;10.55;;;7.70;99.90;;;;;;5094788;28;20130;-77
2022/04/12 07:07:58;;;;;;;17.25;10.05;;;7.30;99.90;;;;;;5093474;28;20055;-75
2022/04/12 07:10:24;;;;;;;15.25;10.77;;;7.40;99.90;;;;;;5093306;28;20036;-74
2022/04/12 07:12:53;;;;;;;16.85;10.90;;;7.30;99.90;;;;;;5076805;28;20055;-75
2022/04/12 07:15:19;;;;;;;15.48;10.07;;;7.30;99.90;;;;;;5095020;28;20447;-76
2022/04/12 07:17:45;;;;;;;16.33;10.85;;;7.40;99.90;;;;;;5094511;28;20040;-75
2022/04/12 07:20:11;;;;;;;15.65;11.43;;;7.40;99.90;;;;;;5093170;28;20119;-76
2022/04/12 07:22:37;;;;;;;15.75;10.57;;;7.40;99.90;;;;;;5093090;28;20044;-75
2022/04/12 07:25:03;;;;;;;14.93;10.25;;;7.50;99.90;;;;;;5093954;28;20135;-73
2022/04/12 07:27:33;;;;;;;15.77;10.35;;;7.60;99.90;;;;;;5095037;28;20123;-74
2022/04/12 07:29:59;;;;;;;16.98;11.32;;;7.50;99.90;;;;;;5092678;28;20492;-75
2022/04/12 07:32:25;;;;;;;17.65;11.45;;;7.70;99.90;;;;;;5094123;28;20138;-72
2022/04/12 07:34:50;;;;;;;15.38;10.57;;;8.10;99.90;;;;;;5094945;28;20127;-76
2022/04/12 07:37:16;;;;;;;14.65;10.30;;;7.80;99.90;;;;;;5094109;28;20044;-74
2022/04/12 07:39:42;;;;;;;17.25;10.68;;;8.10;99.90;;;;;;5076122;28;20040;-73
2022/04/12 07:42:07;;;;;;;17.98;10.85;;;8.00;99.90;;;;;;5093218;28;20044;-74
2022/04/12 07:44:34;;;;;;;15.07;10.55;;;8.40;99.90;;;;;;5092981;28;20476;-73
2022/04/12 07:46:59;;;;;;;17.75;11.02;;;8.60;99.90;;;;;;5093432;28;20131;-74
2022/04/12 07:49:26;;;;;;;16.33;10.80;;;8.80;99.90;;;;;;5093172;28;20445;-74
2022/04/12 07:51:51;;;;;;;;;;;8.60;99.90;;;;;;5094189;28;20403;-73
2022/04/12 07:54:17;;;;;;;16.77;10.38;;;9.10;99.90;;;;;;5092682;28;19920;-73
2022/04/12 07:56:43;;;;;;;16.08;10.95;;;9.10;99.90;;;;;;5092749;28;20468;-75
2022/04/12 07:59:10;;;;;;;15.10;10.45;;;9.10;99.90;;;;;;5093605;28;20044;-74
2022/04/12 08:01:37;;;;;;;16.42;11.07;;;9.50;99.90;;;;;;5092027;28;20511;-77
2022/04/12 08:04:02;;;;;;;15.27;11.18;;;9.40;99.90;;;;;;5093740;28;20526;-74
2022/04/12 08:06:28;;;;;;;22.27;11.23;;;9.40;99.90;;;;;;5093639;28;20044;-78
2022/04/12 08:08:54;;;;;;;19.85;11.10;;;9.30;99.90;;;;;;5075710;28;20067;-74
2022/04/12 08:11:19;;;;;;;19.48;11.23;;;9.90;99.90;;;;;;5092850;28;20472;-78
2022/04/12 08:13:46;;;;;;;16.90;10.70;;;10.00;99.90;;;;;;5093928;28;20498;-73
2022/04/12 08:16:12;;;;;;;16.65;11.02;;;10.00;99.90;;;;;;5075543;28;20136;-70
2022/04/12 08:18:38;;;;;;;15.52;10.05;;;10.20;99.90;;;;;;5092137;28;20392;-76
2022/04/12 08:21:04;;;;;;;17.05;10.25;;;10.30;99.90;;;;;;5093614;28;20040;-76
2022/04/12 08:23:29;;;;;;;15.90;10.35;;;10.60;99.90;;;;;;5092152;28;20055;-74
2022/04/12 08:25:55;;;;;;;15.93;10.48;;;10.50;99.90;;;;;;5093382;28;20044;-75
2022/04/12 08:28:21;;;;;;;18.23;11.50;;;10.60;99.90;;;;;;5076356;28;20106;-75
2022/04/12 08:30:47;;;;;;;16.27;10.68;;;10.60;99.90;;;;;;5093189;28;20150;-74
2022/04/12 08:33:13;;;;;;;17.20;11.13;;;10.80;99.90;;;;;;5092341;28;20369;-76
2022/04/12 08:35:39;;;;;;;16.52;10.60;;;11.20;99.90;;;;;;5093337;28;20058;-74
2022/04/12 08:38:05;;;;;;;15.27;10.55;;;10.80;99.90;;;;;;5092086;28;20040;-76
2022/04/12 08:40:31;;;;;;;18.25;11.27;;;11.00;99.90;;;;;;5075342;28;20062;-74
2022/04/12 08:42:58;;;;;;;14.30;11.07;;;11.20;99.90;;;;;;5093275;28;20048;-74
2022/04/12 08:45:25;;;;;;;15.68;10.95;;;11.00;99.90;;;;;;5093477;28;20044;-75
2022/04/12 08:47:52;;;;;;;16.65;10.88;;;11.40;99.90;;;;;;5092182;28;20047;-73
2022/04/12 08:50:18;;;;;;;;;;;11.00;99.90;;;;;;5092913;28;20161;-75
2022/04/12 08:52:45;;;;;;;15.82;10.63;;;11.00;99.90;;;;;;5093401;28;19920;-76
2022/04/12 08:55:11;;;;;;;16.95;10.93;;;10.90;99.90;;;;;;5092617;28;20057;-74
2022/04/12 08:57:38;;;;;;;15.50;10.50;;;11.20;99.90;;;;;;5092273;28;20071;-75
2022/04/12 09:00:05;;;;;;;;;;;11.10;99.90;;;;;;5094237;28;20375;-73
2022/04/12 09:02:32;;;;;;;16.33;11.30;;;11.30;99.90;;;;;;5092018;28;19975;-75
2022/04/12 09:04:57;;;;;;;16.08;11.70;;;11.80;99.90;;;;;;5092278;28;20058;-75
2022/04/12 09:07:28;;;;;;;18.48;11.18;;;11.60;99.90;;;;;;5092964;28;20040;-75
2022/04/12 09:10:06;;;;;;;15.70;11.88;;;11.60;99.90;;;;;;5093123;28;20131;-74
2022/04/12 09:12:34;;;;;;;14.93;10.75;;;12.10;99.90;;;;;;5093753;28;20425;-76
2022/04/12 09:15:01;;;;;;;15.65;11.00;;;11.90;99.90;;;;;;5096025;28;20052;-76
2022/04/12 09:17:35;;;;;;;17.73;11.50;;;11.70;99.90;;;;;;5097606;28;20047;-74
2022/04/12 09:20:10;;;;;;;17.85;11.13;;;11.80;99.90;;;;;;5096953;28;20472;-76
2022/04/12 09:22:37;;;;;;;13.68;11.13;;;11.80;99.90;;;;;;5096698;28;20084;-75
2022/04/12 09:25:04;;;;;;;17.27;11.48;;;11.90;99.90;;;;;;5095752;28;20068;-75
2022/04/12 09:27:32;;;;;;;17.58;11.40;;;11.80;99.90;;;;;;5095285;28;20114;-75
2022/04/12 09:30:01;;;;;;;18.60;12.00;;;12.00;99.90;;;;;;5094697;28;20055;-74
2022/04/12 09:32:29;;;;;;;17.20;11.57;;;12.40;99.90;;;;;;5095518;28;20044;-77
2022/04/12 09:34:56;;;;;;;16.45;11.10;;;12.60;99.90;;;;;;5096709;28;20048;-79
2022/04/12 09:37:27;;;;;;;16.48;11.20;;;12.70;99.90;;;;;;5095509;28;20126;-75
2022/04/12 09:39:54;;;;;;;14.80;10.85;;;12.80;99.90;;;;;;5096586;28;20040;-79
2022/04/12 09:42:36;;;;;;;19.52;11.68;;;12.90;99.90;;;;;;5095907;28;20048;-78
2022/04/12 09:45:04;;;;;;;15.05;11.02;;;13.20;99.90;;;;;;5095550;28;20044;-75
2022/04/12 09:47:32;;;;;;;15.75;11.77;;;13.70;99.90;;;;;;5095460;28;20096;-74
2022/04/12 09:49:58;;;;;;;17.15;11.60;;;14.00;99.90;;;;;;5095983;28;20105;-77
2022/04/12 09:52:24;;;;;;;16.27;10.63;;;14.00;99.90;;;;;;5096372;28;20054;-74
2022/04/12 09:54:51;;;;;;;17.88;10.73;;;14.10;99.90;;;;;;5096870;28;20142;-74
2022/04/12 09:57:18;;;;;;;16.42;11.02;;;14.10;99.90;;;;;;5095344;28;20468;-77
2022/04/12 09:59:44;;;;;;;19.67;11.55;;;14.10;99.90;;;;;;5078344;28;20369;-74
2022/04/12 10:02:11;;;;;;;16.85;11.60;;;13.70;99.90;;;;;;5078169;28;20189;-75
2022/04/12 10:04:38;;;;;;;14.13;10.93;;;14.10;99.90;;;;;;5095076;28;20048;-73
2022/04/12 10:07:05;;;;;;;17.17;11.10;;;13.90;99.90;;;;;;5096002;28;20090;-73
2022/04/12 10:09:36;;;;;;;14.93;10.48;;;14.40;99.90;;;;;;5094875;28;20465;-73
2022/04/12 10:12:03;;;;;;;17.05;11.68;;;14.00;99.90;;;;;;5096251;28;20048;-72
2022/04/12 10:14:30;;;;;;;14.98;10.82;;;14.00;99.90;;;;;;5095890;28;20126;-72
2022/04/12 10:16:57;;;;;;;16.77;11.77;;;14.00;99.90;;;;;;5095913;28;20047;-74
2022/04/12 10:19:23;;;;;;;15.70;11.65;;;14.40;99.90;;;;;;5095646;28;20192;-73
2022/04/12 10:21:49;;;;;;;15.90;11.45;;;14.50;99.90;;;;;;5096402;28;20145;-74
2022/04/12 10:24:16;;;;;;;16.63;11.73;;;14.50;99.90;;;;;;5095417;28;20445;-73
2022/04/12 10:26:45;;;;;;;14.93;11.65;;;14.80;99.90;;;;;;5095505;28;20052;-70
2022/04/12 10:29:13;;;;;;;14.02;10.32;;;14.70;99.90;;;;;;5095449;28;20091;-71
2022/04/12 10:31:59;;;;;;;16.10;11.85;;;14.50;99.90;;;;;;5095912;28;20082;-77
2022/04/12 10:34:25;;;;;;;14.63;11.48;;;14.90;99.90;;;;;;5094355;28;20051;-78
2022/04/12 10:37:02;;;;;;;16.30;11.75;;;14.60;99.90;;;;;;5095631;28;20052;-80
2022/04/12 10:39:35;;;;;;;18.15;12.02;;;14.90;99.90;;;;;;5094596;28;20553;-77
2022/04/12 10:42:10;;;;;;;17.10;11.23;;;15.20;99.90;;;;;;5094466;28;20052;-76
2022/04/12 10:44:37;;;;;;;13.40;11.45;;;15.10;99.90;;;;;;5095499;28;20411;-79
2022/04/12 10:47:03;;;;;;;14.82;11.93;;;15.40;99.90;;;;;;5095925;28;20047;-79
2022/04/12 10:49:34;;;;;;;14.45;11.60;;;15.50;99.90;;;;;;5078276;28;20040;-80
2022/04/12 10:52:00;;;;;;;18.00;11.95;;;15.50;99.90;;;;;;5095794;28;20048;-82
2022/04/12 10:54:34;;;;;;;18.98;12.00;;;15.60;99.90;;;;;;5077522;28;20518;-73
2022/04/12 10:57:18;;;;;;;18.90;12.18;;;16.10;99.90;;;;;;5077684;28;20044;-79
2022/04/12 11:00:15;;;;;;;16.17;12.15;;;16.10;99.90;;;;;;5077300;28;20047;-78
2022/04/12 11:02:42;;;;;;;17.58;11.85;;;16.10;99.90;;;;;;5077907;28;20594;-80
2022/04/12 11:05:28;;;;;;;16.25;12.43;;;16.40;99.90;;;;;;5077280;28;20043;-81
2022/04/12 11:07:54;;;;;;;15.90;12.57;;;16.50;99.90;;;;;;5077171;28;20097;-74
2022/04/12 11:10:21;;;;;;;16.67;11.38;;;16.40;99.90;;;;;;5077044;28;20048;-75
2022/04/12 11:12:49;;;;;;;17.55;12.25;;;16.60;99.90;;;;;;5093964;28;20054;-76
2022/04/12 11:15:25;;;;;;;18.52;11.52;;;16.50;99.90;;;;;;5093932;28;20044;-78
2022/04/12 11:18:04;;;;;;;15.23;11.60;;;16.60;99.90;;;;;;5094650;28;20051;-77
2022/04/12 11:20:31;;;;;;;15.40;11.57;;;16.60;99.90;;;;;;5094180;28;20127;-74
2022/04/12 11:22:59;;;;;;;18.45;12.15;;;16.40;99.90;;;;;;5077367;28;20051;-80
2022/04/12 11:25:26;;;;;;;15.23;11.25;;;17.20;99.90;;;;;;5076751;28;20048;-76
2022/04/12 11:27:59;;;;;;;19.77;11.43;;;17.40;99.90;;;;;;5094430;28;20055;-78
2022/04/12 11:30:26;;;;;;;13.75;11.02;;;16.90;99.90;;;;;;5076430;28;20109;-76
2022/04/12 11:32:56;;;;;;;14.75;11.40;;;17.10;99.90;;;;;;5093257;28;20048;-77
2022/04/12 11:35:25;;;;;;;24.13;12.20;;;17.30;99.90;;;;;;5076110;28;20154;-78
2022/04/12 11:37:51;;;;;;;14.43;10.20;;;17.40;99.90;;;;;;5076113;28;20527;-80
2022/04/12 11:40:16;;;;;;;;;;;17.20;99.90;;;;;;5093834;28;20054;-77
2022/04/12 11:42:45;;;;;;;14.88;11.98;;;17.10;99.90;;;;;;5093078;28;19920;-81
2022/04/12 11:45:11;;;;;;;16.45;11.30;;;17.40;99.90;;;;;;5077622;28;20055;-75
2022/04/12 11:47:44;;;;;;;18.80;11.15;;;17.10;99.90;;;;;;5093513;28;20051;-75
2022/04/12 11:50:17;;;;;;;17.90;11.68;;;17.10;99.90;;;;;;5093339;28;20047;-76
2022/04/12 11:52:45;;;;;;;15.93;11.45;;;17.40;99.90;;;;;;5094078;28;20086;-77
2022/04/12 11:55:11;;;;;;;15.73;10.93;;;17.30;99.90;;;;;;5092831;28;20060;-77
2022/04/12 11:57:37;;;;;;;15.88;11.25;;;17.50;99.90;;;;;;5059591;28;20438;-78
2022/04/12 12:00:03;;;;;;;;;;;17.10;99.90;;;;;;5093455;28;20070;-73
2022/04/12 12:02:37;;;;;;;15.77;10.52;;;17.30;99.90;;;;;;5076957;28;20342;-78
2022/04/12 12:05:11;;;;;;;13.93;10.68;;;17.30;99.90;;;;;;5076340;28;20055;-77
2022/04/12 12:07:38;;;;;;;15.70;10.65;;;17.40;99.90;;;;;;5075975;28;20047;-76
2022/04/12 12:10:12;;;;;;;15.23;11.18;;;17.40;99.90;;;;;;5076153;28;20075;-77
2022/04/12 12:12:42;;;;;;;17.92;11.65;;;17.70;99.90;;;;;;5093279;28;20084;-78
2022/04/12 12:15:24;;;;;;;15.13;11.10;;;17.20;99.90;;;;;;5092863;28;20060;-76
2022/04/12 12:17:54;;;;;;;18.90;11.35;;;17.40;99.90;;;;;;5093747;28;20154;-77
2022/04/12 12:20:22;;;;;;;18.48;11.38;;;17.60;99.90;;;;;;5094027;28;20044;-75
2022/04/12 12:22:51;;;;;;;18.45;11.70;;;17.70;99.90;;;;;;5092660;28;20126;-76
2022/04/12 12:25:21;;;;;;;15.18;10.68;;;17.90;99.90;;;;;;5093674;28;20048;-73
2022/04/12 12:27:50;;;;;;;15.82;10.55;;;17.80;99.90;;;;;;5092515;28;20102;-77
2022/04/12 12:30:20;;;;;;;15.07;10.52;;;17.70;99.90;;;;;;5091787;28;20052;-79
2022/04/12 12:32:49;;;;;;;15.30;10.77;;;17.80;99.90;;;;;;5093177;28;20134;-77
2022/04/12 12:35:17;;;;;;;14.57;10.98;;;17.70;99.90;;;;;;5093568;28;20044;-77
2022/04/12 12:37:45;;;;;;;16.23;10.77;;;17.60;99.90;;;;;;5092419;28;20048;-72
2022/04/12 12:40:23;;;;;;;13.88;10.68;;;17.60;99.90;;;;;;5094206;28;20052;-73
2022/04/12 12:42:50;;;;;;;14.13;10.82;;;17.60;99.90;;;;;;5092200;28;20096;-75
2022/04/12 12:45:19;;;;;;;17.42;11.40;;;17.40;99.90;;;;;;5092376;28;20044;-73
2022/04/12 12:47:49;;;;;;;15.43;11.20;;;17.60;99.90;;;;;;5079556;28;20074;-75
2022/04/12 12:50:17;;;;;;;14.55;10.43;;;17.80;99.90;;;;;;5097031;28;20384;-75